Time;durP1;ratioP1;P1;durP2;ratioP2;P2;SDS_P1;SDS_P2;PMS_P1;PMS_P2;Temp;Humidity;BMP_temperature;BMP_pressure;BME280_temperature;BME280_humidity;BME280_pressure;Samples;Min_cycle;Max_cycle;Signal;HPM_P1;HPM_P2
2022/07/11 00:00:20;;;;;;;1085.55;999.90;;;;;;;18.87;46.02;101494.31;695283;28;21824;-82
2022/07/11 00:00:42;;;;;;;1083.70;999.90;;;;;;;18.89;45.94;101499.56;694677;28;1942;-83
2022/07/11 00:01:05;;;;;;;1082.10;999.90;;;;;;;18.88;46.17;101495.97;688471;28;46203;-82
2022/07/11 00:01:28;;;;;;;1084.00;999.90;;;;;;;18.85;46.08;101493.66;684250;28;56728;-83
2022/07/11 00:01:49;;;;;;;1084.70;999.90;;;;;;;18.87;45.86;101496.19;690330;28;59668;-82
2022/07/11 00:02:11;;;;;;;1082.10;999.90;;;;;;;18.90;45.92;101493.88;696622;28;19975;-82
2022/07/11 00:02:34;;;;;;;1080.68;999.90;;;;;;;18.90;45.82;101498.50;696751;28;36253;-82
2022/07/11 00:02:55;;;;;;;1062.40;993.45;;;;;;;18.82;46.16;101485.00;689293;28;71460;-83
2022/07/11 00:03:16;;;;;;;1045.93;977.95;;;;;;;18.89;45.96;101492.19;686946;28;21612;-82
2022/07/11 00:03:38;;;;;;;1043.95;976.15;;;;;;;18.89;46.09;101494.91;687500;28;23977;-82
2022/07/11 00:04:00;;;;;;;1048.15;980.00;;;;;;;18.88;46.14;101490.50;687110;28;32064;-82
2022/07/11 00:04:21;;;;;;;1052.22;983.97;;;;;;;18.88;45.94;101501.44;692843;28;1414;-82
2022/07/11 00:04:48;;;;;;;1043.88;975.97;;;;;;;18.84;46.03;101492.00;688634;28;62950;-82
2022/07/11 00:05:10;;;;;;;1047.28;979.15;;;;;;;18.89;46.10;101502.31;694577;28;36785;-82
2022/07/11 00:05:32;;;;;;;1046.47;978.45;;;;;;;18.89;46.07;101496.81;690923;28;46448;-82
2022/07/11 00:05:53;;;;;;;1049.05;980.95;;;;;;;18.88;46.09;101495.13;693757;28;27590;-83
2022/07/11 00:06:15;;;;;;;1047.50;979.40;;;;;;;18.81;46.24;101486.91;693898;28;23646;-83
2022/07/11 00:06:36;;;;;;;1048.75;980.65;;;;;;;18.88;46.15;101489.66;690822;28;4813;-82
2022/07/11 00:06:58;;;;;;;1051.72;983.33;;;;;;;18.88;46.21;101500.59;688878;28;43159;-82
2022/07/11 00:07:20;;;;;;;1050.88;982.53;;;;;;;18.85;46.24;101493.66;683956;28;41248;-82
2022/07/11 00:07:41;;;;;;;1049.72;981.55;;;;;;;18.87;46.12;101494.31;683469;28;38692;-83
2022/07/11 00:08:06;;;;;;;1051.32;983.00;;;;;;;18.86;46.18;101498.09;687790;28;22471;-83
2022/07/11 00:08:28;;;;;;;1078.43;999.90;;;;;;;18.86;46.17;101495.34;684546;28;114924;-82
2022/07/11 00:08:50;;;;;;;1083.78;999.90;;;;;;;18.87;46.18;101485.22;688750;28;45133;-82
2022/07/11 00:09:11;;;;;;;1080.78;999.90;;;;;;;18.86;46.33;101486.31;690332;28;22465;-83
2022/07/11 00:09:33;;;;;;;1080.82;999.90;;;;;;;18.85;46.01;101490.91;684421;28;47807;-82
2022/07/11 00:09:55;;;;;;;1079.50;999.90;;;;;;;18.88;46.20;101495.13;686857;28;25281;-81
2022/07/11 00:10:16;;;;;;;1061.20;992.30;;;;;;;18.88;46.19;101495.13;680689;28;46554;-82
2022/07/11 00:10:38;;;;;;;1047.88;979.83;;;;;;;18.81;46.05;101486.91;691461;28;47021;-82
2022/07/11 00:10:59;;;;;;;1047.82;979.72;;;;;;;18.86;45.83;101494.50;691523;28;24468;-82
2022/07/11 00:11:20;;;;;;;1048.00;979.90;;;;;;;18.88;46.12;101495.97;691533;28;22376;-82
2022/07/11 00:11:42;;;;;;;1044.80;976.70;;;;;;;18.84;46.04;101497.47;690653;28;42949;-82
2022/07/11 00:12:05;;;;;;;1047.30;979.15;;;;;;;18.60;46.15;101448.84;688645;28;46443;-82
2022/07/11 00:12:26;;;;;;;1049.60;981.33;;;;;;;18.82;46.30;101482.28;686574;28;42468;-82
2022/07/11 00:12:48;;;;;;;1052.85;984.35;;;;;;;18.88;46.27;101503.34;686563;28;24204;-81
2022/07/11 00:13:10;;;;;;;1050.38;982.17;;;;;;;18.88;46.41;101495.13;691901;28;22475;-82
2022/07/11 00:13:31;;;;;;;1048.32;980.22;;;;;;;18.53;46.09;101444.22;690317;28;47641;-82
2022/07/11 00:13:53;;;;;;;1050.25;982.05;;;;;;;18.87;46.08;101496.19;689820;28;38868;-82
2022/07/11 00:14:14;;;;;;;1048.38;980.17;;;;;;;18.82;46.21;101485.84;691431;28;1438;-82
2022/07/11 00:14:39;;;;;;;1047.95;979.95;;;;;;;18.61;46.12;101456.00;685277;28;44884;-82
2022/07/11 00:15:00;;;;;;;1049.00;980.80;;;;;;;18.87;46.27;101497.03;686909;28;94151;-82
2022/07/11 00:15:22;;;;;;;1049.75;981.45;;;;;;;18.68;46.09;101463.16;694386;28;3414;-83
2022/07/11 00:15:46;;;;;;;1059.25;990.40;;;;;;;18.86;46.22;101498.09;694671;28;1363;-83
2022/07/11 00:16:10;;;;;;;1088.20;999.90;;;;;;;18.85;46.24;101490.09;686985;28;35541;-83
2022/07/11 00:16:32;;;;;;;1088.85;999.90;;;;;;;18.90;45.91;101503.97;679299;28;72607;-83
2022/07/11 00:16:54;;;;;;;1090.32;999.90;;;;;;;18.90;46.32;101496.63;685902;28;20014;-82
2022/07/11 00:17:15;;;;;;;1089.35;999.90;;;;;;;18.89;46.20;101491.34;685878;28;39985;-82
2022/07/11 00:17:36;;;;;;;1091.25;999.90;;;;;;;18.90;46.32;101498.50;689910;28;1471;-82
2022/07/11 00:17:59;;;;;;;1090.30;999.90;;;;;;;18.90;46.28;101499.34;691542;28;45326;-82
2022/07/11 00:18:20;;;;;;;1093.45;999.90;;;;;;;18.90;46.41;101499.34;686464;28;46265;-81
2022/07/11 00:18:42;;;;;;;1093.63;999.90;;;;;;;18.92;46.22;101496.41;684859;28;22468;-83
2022/07/11 00:19:05;;;;;;;1089.30;999.90;;;;;;;18.93;46.21;101494.50;685962;28;20447;-83
2022/07/11 00:19:26;;;;;;;1092.25;999.90;;;;;;;18.88;46.20;101492.41;685382;28;69033;-82
2022/07/11 00:19:49;;;;;;;1092.15;999.90;;;;;;;18.93;46.20;101499.97;692657;28;22649;-81
2022/07/11 00:20:11;;;;;;;1090.90;999.90;;;;;;;18.94;46.37;101494.28;691430;28;55528;-82
2022/07/11 00:20:32;;;;;;;1090.10;999.90;;;;;;;18.93;45.80;101498.06;690639;28;46682;-82
2022/07/11 00:20:54;;;;;;;1087.47;999.90;;;;;;;18.93;46.33;101498.06;691709;28;18493;-83
2022/07/11 00:21:15;;;;;;;1085.63;999.90;;;;;;;18.92;46.34;101490.91;689831;28;23605;-82
2022/07/11 00:21:38;;;;;;;1087.78;999.90;;;;;;;18.94;46.12;101496.19;684021;28;4963;-83
2022/07/11 00:21:59;;;;;;;1087.30;999.90;;;;;;;18.93;46.44;101489.84;685347;28;63901;-82
2022/07/11 00:22:20;;;;;;;1083.05;999.90;;;;;;;18.94;46.28;101491.53;686097;28;45195;-80
2022/07/11 00:22:42;;;;;;;1084.85;999.90;;;;;;;18.95;46.32;101495.97;690842;28;24493;-82
2022/07/11 00:23:03;;;;;;;1079.13;999.90;;;;;;;18.96;46.19;101494.91;691358;28;45324;-83
2022/07/11 00:23:25;;;;;;;1052.85;984.47;;;;;;;18.86;46.34;101476.19;695591;28;1369;-82
2022/07/11 00:23:47;;;;;;;1050.40;982.28;;;;;;;18.97;46.17;101493.03;690983;28;49231;-82
2022/07/11 00:24:08;;;;;;;1051.53;983.33;;;;;;;18.98;46.33;101500.16;696352;28;3273;-83
2022/07/11 00:24:29;;;;;;;1052.13;983.92;;;;;;;18.96;46.37;101492.16;690029;28;38902;-82
2022/07/11 00:24:52;;;;;;;1056.65;988.15;;;;;;;18.97;46.31;101499.31;689228;28;25540;-83
2022/07/11 00:25:13;;;;;;;1056.72;988.00;;;;;;;18.93;46.16;101492.59;685651;28;58854;-81
2022/07/11 00:25:35;;;;;;;1056.15;987.58;;;;;;;18.96;46.48;101489.41;681682;29;18957;-83
2022/07/11 00:25:57;;;;;;;1059.68;990.95;;;;;;;18.97;46.29;101498.50;691535;28;41225;-82
2022/07/11 00:26:18;;;;;;;1062.07;993.13;;;;;;;18.95;46.30;101490.50;693970;28;4385;-81
2022/07/11 00:26:41;;;;;;;1051.78;983.58;;;;;;;18.94;46.38;101494.28;693216;28;27139;-83
2022/07/11 00:27:02;;;;;;;1053.03;984.60;;;;;;;18.92;46.23;101490.91;685419;28;46139;-83
2022/07/11 00:27:24;;;;;;;1053.05;984.53;;;;;;;18.95;46.28;101495.09;693998;28;34466;-82
2022/07/11 00:27:45;;;;;;;1051.50;983.10;;;;;;;18.94;46.22;101490.72;694649;28;22507;-82
2022/07/11 00:28:07;;;;;;;1070.85;999.72;;;;;;;18.89;46.52;101485.88;691193;28;41145;-82
2022/07/11 00:28:29;;;;;;;1088.32;999.90;;;;;;;18.93;46.36;101489.00;692766;28;45326;-83
2022/07/11 00:28:50;;;;;;;1087.85;999.90;;;;;;;18.92;46.51;101490.91;689429;28;22801;-83
2022/07/11 00:29:12;;;;;;;1087.30;999.90;;;;;;;18.92;46.44;101490.91;687456;28;22472;-82
2022/07/11 00:29:34;;;;;;;1088.50;999.90;;;;;;;18.91;46.42;101489.22;687045;28;46494;-83
2022/07/11 00:29:56;;;;;;;1088.45;999.90;;;;;;;18.88;46.34;101495.13;690755;28;70653;-83
2022/07/11 00:30:17;;;;;;;1089.47;999.90;;;;;;;18.91;46.40;101491.97;693886;28;6756;-83
2022/07/11 00:30:39;;;;;;;1087.38;999.90;;;;;;;18.91;46.45;101489.22;689245;28;26385;-83
2022/07/11 00:31:00;;;;;;;1087.53;999.90;;;;;;;18.91;46.36;101486.50;682818;28;1422;-82
2022/07/11 00:31:24;;;;;;;1089.40;999.90;;;;;;;18.90;46.37;101493.00;688202;28;4235;-82
2022/07/11 00:31:45;;;;;;;1090.72;999.90;;;;;;;18.91;46.29;101491.97;683735;28;77823;-83
2022/07/11 00:32:07;;;;;;;1090.10;999.90;;;;;;;18.93;46.24;101487.09;690752;28;7227;-83
2022/07/11 00:32:29;;;;;;;1090.72;999.90;;;;;;;18.91;46.29;101489.22;685633;28;69460;-82
2022/07/11 00:32:51;;;;;;;1087.55;999.90;;;;;;;18.91;46.30;101489.22;687015;28;7356;-82
2022/07/11 00:33:12;;;;;;;1091.55;999.90;;;;;;;18.89;46.50;101488.63;686539;28;48738;-83
2022/07/11 00:33:34;;;;;;;1089.93;999.90;;;;;;;18.93;46.44;101494.50;684776;28;46140;-82
2022/07/11 00:33:55;;;;;;;1087.75;999.90;;;;;;;18.90;46.61;101482.94;691786;28;21211;-82
2022/07/11 00:34:17;;;;;;;1088.10;999.90;;;;;;;18.91;46.40;101483.75;689658;28;22488;-82
2022/07/11 00:34:40;;;;;;;1086.50;999.90;;;;;;;18.93;46.33;101489.84;686218;28;22199;-82
2022/07/11 00:35:01;;;;;;;1079.13;999.90;;;;;;;18.94;46.56;101494.28;685406;28;69062;-83
2022/07/11 00:35:23;;;;;;;1066.00;997.03;;;;;;;18.92;46.51;101485.44;685739;28;21668;-83
2022/07/11 00:35:44;;;;;;;1050.78;982.80;;;;;;;18.92;46.20;101490.91;685300;28;46382;-82
2022/07/11 00:36:08;;;;;;;1050.47;982.47;;;;;;;18.91;46.49;101486.50;691356;28;43905;-82
2022/07/11 00:36:29;;;;;;;1049.70;981.70;;;;;;;18.87;46.37;101482.50;687653;28;70563;-82
2022/07/11 00:36:51;;;;;;;1052.15;984.05;;;;;;;18.89;46.38;101483.97;687189;28;1425;-83
2022/07/11 00:37:12;;;;;;;1056.07;987.55;;;;;;;18.89;46.28;101486.72;689641;28;1383;-83
2022/07/11 00:37:34;;;;;;;1083.28;999.90;;;;;;;18.89;46.32;101480.41;689771;28;22037;-83
2022/07/11 00:37:56;;;;;;;1089.47;999.90;;;;;;;18.88;46.42;101487.75;688024;28;48211;-82
2022/07/11 00:38:17;;;;;;;1089.57;999.90;;;;;;;18.88;46.50;101485.00;686191;28;44033;-82
2022/07/11 00:38:38;;;;;;;1087.57;999.90;;;;;;;18.86;46.75;101487.13;694893;28;22011;-83
2022/07/11 00:39:00;;;;;;;1088.25;999.90;;;;;;;18.87;46.57;101486.09;692335;28;1218;-82
2022/07/11 00:39:22;;;;;;;1086.43;999.90;;;;;;;18.87;46.72;101483.34;691004;28;44188;-81
2022/07/11 00:39:44;;;;;;;1060.85;992.13;;;;;;;18.87;46.47;101491.56;690472;28;1420;-82
2022/07/11 00:40:06;;;;;;;1049.03;981.00;;;;;;;18.87;46.86;101499.78;680186;29;46317;-82
2022/07/11 00:40:28;;;;;;;1049.35;981.47;;;;;;;18.87;46.72;101486.09;686052;28;45056;-82
2022/07/11 00:40:49;;;;;;;1049.82;981.92;;;;;;;18.86;46.51;101484.41;687786;28;26536;-83
2022/07/11 00:41:10;;;;;;;1048.40;980.50;;;;;;;18.85;46.62;101479.13;691930;28;48906;-82
2022/07/11 00:41:33;;;;;;;1051.80;983.75;;;;;;;18.88;46.54;101487.75;685687;28;21292;-81
2022/07/11 00:41:54;;;;;;;1048.93;980.92;;;;;;;18.86;46.47;101484.41;684743;28;69284;-82
2022/07/11 00:42:17;;;;;;;1050.40;982.45;;;;;;;18.76;46.65;101463.97;691988;28;20492;-83
2022/07/11 00:42:38;;;;;;;1048.03;980.13;;;;;;;18.84;46.56;101483.78;686294;28;41856;-82
2022/07/11 00:43:00;;;;;;;1050.25;982.10;;;;;;;18.86;46.52;101494.50;693060;28;39117;-82
2022/07/11 00:43:29;;;;;;;1050.75;982.75;;;;;;;18.85;46.55;101484.63;689292;28;46208;-83
2022/07/11 00:43:52;;;;;;;1045.88;978.05;;;;;;;18.83;46.74;101490.25;689181;28;137008;-83
2022/07/11 00:44:14;;;;;;;1075.85;999.90;;;;;;;18.81;46.62;101483.31;687046;28;68314;-81
2022/07/11 00:44:37;;;;;;;1070.63;999.47;;;;;;;18.80;46.93;101484.38;692374;28;20598;-83
2022/07/11 00:44:58;;;;;;;1045.20;977.28;;;;;;;18.82;46.69;101485.00;690491;28;61610;-83
2022/07/11 00:45:19;;;;;;;1047.07;979.28;;;;;;;18.79;46.61;101480.78;691299;28;46457;-81
2022/07/11 00:45:41;;;;;;;1051.20;983.17;;;;;;;18.81;46.75;101489.66;688981;28;19079;-82
2022/07/11 00:46:04;;;;;;;1052.90;984.75;;;;;;;18.82;46.91;101487.75;685141;28;46511;-82
2022/07/11 00:46:28;;;;;;;1047.65;979.83;;;;;;;18.78;46.65;101484.59;680192;28;4147;-82
2022/07/11 00:46:50;;;;;;;1052.22;984.20;;;;;;;18.81;46.86;101488.78;689186;28;73582;-82
2022/07/11 00:47:12;;;;;;;1052.45;984.25;;;;;;;18.78;46.69;101479.13;692969;28;6197;-81
2022/07/11 00:47:34;;;;;;;1060.80;991.95;;;;;;;18.79;46.71;101485.44;689726;28;71695;-82
2022/07/11 00:47:56;;;;;;;1048.72;980.72;;;;;;;18.80;46.80;101487.97;682260;28;10733;-82
2022/07/11 00:48:18;;;;;;;1053.28;985.17;;;;;;;18.76;46.57;101488.59;685215;28;70460;-83
2022/07/11 00:48:40;;;;;;;1049.70;981.67;;;;;;;18.81;46.75;101491.53;686470;28;22129;-83
2022/07/11 00:49:02;;;;;;;1067.65;998.45;;;;;;;18.79;46.96;101496.38;684901;28;62449;-82
2022/07/11 00:49:28;;;;;;;1093.07;999.90;;;;;;;18.78;46.83;101487.34;683946;28;18683;-83
2022/07/11 00:49:50;;;;;;;1089.85;999.90;;;;;;;18.78;47.14;101494.69;684616;28;137958;-82
2022/07/11 00:50:13;;;;;;;1090.05;999.90;;;;;;;18.78;46.95;101490.06;690527;28;69398;-82
2022/07/11 00:50:35;;;;;;;1089.90;999.90;;;;;;;18.79;46.78;101486.25;692378;28;1184;-82
2022/07/11 00:50:57;;;;;;;1091.38;999.90;;;;;;;18.81;46.92;101497.00;687475;28;48691;-82
2022/07/11 00:51:20;;;;;;;1092.10;999.90;;;;;;;18.77;46.72;101484.81;682956;28;65719;-83
2022/07/11 00:51:43;;;;;;;1092.68;999.90;;;;;;;18.81;46.87;101486.06;688944;28;69561;-83
2022/07/11 00:52:05;;;;;;;1088.53;999.90;;;;;;;18.81;46.89;101486.91;693679;28;46283;-81
2022/07/11 00:52:28;;;;;;;1091.80;999.90;;;;;;;18.83;46.67;101492.16;688256;28;46172;-83
2022/07/11 00:52:51;;;;;;;1090.80;999.90;;;;;;;18.78;46.98;101484.59;686329;28;93316;-83
2022/07/11 00:53:13;;;;;;;1089.90;999.90;;;;;;;18.82;46.69;101488.56;692635;28;48819;-82
2022/07/11 00:53:35;;;;;;;1089.43;999.90;;;;;;;18.82;46.71;101493.22;693492;28;46143;-83
2022/07/11 00:53:58;;;;;;;1086.20;999.90;;;;;;;18.83;47.03;101489.44;685055;28;69218;-82
2022/07/11 00:54:21;;;;;;;1090.28;999.90;;;;;;;18.81;46.71;101486.06;689135;28;42871;-83
2022/07/11 00:54:44;;;;;;;1091.07;999.90;;;;;;;18.73;46.86;101478.94;695413;28;34174;-83
2022/07/11 00:55:07;;;;;;;1091.07;999.90;;;;;;;18.79;46.70;101486.25;692422;28;62882;-83
2022/07/11 00:55:28;;;;;;;1093.57;999.90;;;;;;;18.81;46.87;101488.78;687934;28;68170;-82
2022/07/11 00:55:52;;;;;;;1092.97;999.90;;;;;;;18.80;46.95;101489.88;690480;28;37554;-82
2022/07/11 00:56:14;;;;;;;1095.65;999.90;;;;;;;18.78;46.94;101487.34;687641;28;69704;-83
2022/07/11 00:56:36;;;;;;;1093.47;999.90;;;;;;;18.78;46.82;101487.34;686840;28;45185;-82
2022/07/11 00:56:58;;;;;;;1093.85;999.90;;;;;;;18.79;46.82;101499.94;691612;28;44903;-83
2022/07/11 00:57:19;;;;;;;1093.95;999.90;;;;;;;18.79;47.06;101499.13;693527;28;44163;-83
2022/07/11 00:57:41;;;;;;;1093.63;999.90;;;;;;;18.76;46.90;101485.84;691565;28;23521;-81
2022/07/11 00:58:02;;;;;;;1093.72;999.90;;;;;;;18.79;46.92;101493.66;690951;28;39575;-81
2022/07/11 00:58:25;;;;;;;1092.63;999.90;;;;;;;18.78;46.79;101497.41;686370;28;21105;-82
2022/07/11 00:58:46;;;;;;;1090.65;999.90;;;;;;;18.78;46.79;101492.81;678862;29;69247;-83
2022/07/11 00:59:08;;;;;;;1087.85;999.90;;;;;;;18.75;47.00;101493.25;686879;28;1595;-82
2022/07/11 00:59:31;;;;;;;1074.03;999.90;;;;;;;18.78;47.10;101494.69;686962;28;45167;-82
2022/07/11 00:59:58;;;;;;;1044.65;976.72;;;;;;;18.78;46.96;101497.41;689740;28;65979;-82
2022/07/11 01:00:19;;;;;;;1045.55;977.63;;;;;;;18.76;46.89;101488.59;685046;28;158865;-83
2022/07/11 01:00:41;;;;;;;1044.18;976.42;;;;;;;18.75;47.04;101492.41;683830;28;20191;-81
2022/07/11 01:01:03;;;;;;;1043.95;976.05;;;;;;;18.76;46.97;101494.06;685797;28;41103;-82
2022/07/11 01:01:25;;;;;;;1044.68;976.90;;;;;;;18.77;46.88;101493.84;686102;28;4152;-81
2022/07/11 01:01:48;;;;;;;1050.97;982.85;;;;;;;18.75;46.88;101487.75;690185;28;67982;-82
2022/07/11 01:02:09;;;;;;;1041.90;974.13;;;;;;;18.75;46.82;101487.75;689533;28;58195;-82
2022/07/11 01:02:32;;;;;;;1035.82;968.40;;;;;;;18.73;46.89;101487.97;693121;28;23550;-81
2022/07/11 01:02:53;;;;;;;1039.25;971.45;;;;;;;18.73;47.04;101492.63;692503;28;69344;-81
2022/07/11 01:03:15;;;;;;;1042.70;974.80;;;;;;;18.72;46.85;101485.44;693561;28;23474;-81
2022/07/11 01:03:39;;;;;;;1044.93;977.05;;;;;;;18.72;46.84;101486.28;684352;28;35367;-82
2022/07/11 01:04:02;;;;;;;1049.43;981.33;;;;;;;18.71;46.87;101489.22;683445;28;92027;-81
2022/07/11 01:04:24;;;;;;;1047.03;978.83;;;;;;;18.71;47.11;101484.63;688111;28;34718;-81
2022/07/11 01:04:45;;;;;;;1040.60;972.80;;;;;;;18.70;47.12;101493.88;693217;28;40426;-82
2022/07/11 01:05:07;;;;;;;1045.85;977.85;;;;;;;18.70;47.04;101485.66;694727;28;23294;-83
2022/07/11 01:05:29;;;;;;;1039.82;971.95;;;;;;;18.69;46.93;101486.72;688311;28;45929;-81
2022/07/11 01:05:51;;;;;;;1041.72;973.83;;;;;;;18.69;47.20;101486.72;689165;28;22197;-82
2022/07/11 01:06:12;;;;;;;1076.28;999.90;;;;;;;18.67;46.95;101483.34;688479;28;69595;-81
2022/07/11 01:06:34;;;;;;;1094.05;999.90;;;;;;;18.64;47.06;101481.03;696242;28;15466;-83
2022/07/11 01:06:55;;;;;;;1092.60;999.90;;;;;;;18.66;47.00;101484.41;691446;28;46731;-82
2022/07/11 01:07:18;;;;;;;1089.82;999.90;;;;;;;18.66;47.16;101483.56;690351;28;8183;-81
2022/07/11 01:07:39;;;;;;;1088.65;999.90;;;;;;;18.64;47.18;101483.78;689847;28;71505;-82
2022/07/11 01:08:01;;;;;;;1083.45;999.90;;;;;;;18.64;47.21;101483.78;691210;28;22484;-81
2022/07/11 01:08:22;;;;;;;1059.20;990.47;;;;;;;18.64;47.12;101483.78;694715;28;8059;-82
2022/07/11 01:08:44;;;;;;;1062.25;993.28;;;;;;;18.63;47.14;101490.28;690619;28;33852;-82
2022/07/11 01:09:06;;;;;;;1057.40;988.78;;;;;;;18.63;46.96;101487.56;692116;28;46410;-82
2022/07/11 01:09:28;;;;;;;1056.90;988.40;;;;;;;18.58;47.36;101472.84;696370;28;33916;-82
2022/07/11 01:09:49;;;;;;;1054.05;985.58;;;;;;;18.63;47.22;101484.81;692489;28;11595;-83
2022/07/11 01:10:11;;;;;;;1055.65;987.25;;;;;;;18.62;47.11;101480.44;685820;28;12908;-82
2022/07/11 01:10:32;;;;;;;1053.78;985.47;;;;;;;18.63;47.22;101484.81;689147;28;24661;-81
2022/07/11 01:10:55;;;;;;;1048.65;980.55;;;;;;;18.62;47.39;101488.63;688192;28;42589;-82
2022/07/11 01:11:17;;;;;;;1043.68;975.72;;;;;;;18.61;47.29;101481.47;690032;28;67971;-82
2022/07/11 01:11:38;;;;;;;1043.10;975.08;;;;;;;18.60;47.45;101479.78;685220;28;41231;-83
2022/07/11 01:12:00;;;;;;;1039.07;971.22;;;;;;;18.61;47.29;101488.84;690795;28;44893;-83
2022/07/11 01:12:23;;;;;;;1044.95;977.00;;;;;;;18.59;47.51;101485.47;687249;28;24565;-84
2022/07/11 01:12:44;;;;;;;1048.35;980.15;;;;;;;18.53;47.28;101479.78;686400;28;1556;-83
2022/07/11 01:13:07;;;;;;;1048.72;980.47;;;;;;;18.34;47.33;101450.59;689225;28;19221;-82
2022/07/11 01:13:28;;;;;;;1050.28;981.90;;;;;;;18.42;47.48;101465.94;689390;28;20955;-83
2022/07/11 01:13:51;;;;;;;1049.00;980.83;;;;;;;18.55;47.40;101491.34;687006;28;22490;-83
2022/07/11 01:14:12;;;;;;;1043.43;975.40;;;;;;;18.54;47.38;101481.47;690168;28;71855;-82
2022/07/11 01:14:33;;;;;;;1053.13;984.55;;;;;;;18.55;47.60;101493.25;686144;28;21584;-82
2022/07/11 01:14:56;;;;;;;1091.25;999.90;;;;;;;18.55;47.52;101491.34;689138;28;16935;-82
2022/07/11 01:15:17;;;;;;;1090.53;999.90;;;;;;;18.54;47.35;101486.97;687558;28;68312;-83
2022/07/11 01:15:40;;;;;;;1091.05;999.90;;;;;;;18.57;47.44;101487.56;680276;28;34585;-82
2022/07/11 01:16:12;;;;;;;1093.03;999.90;;;;;;;18.51;47.34;101476.44;682841;28;20116;-83
2022/07/11 01:16:34;;;;;;;1095.97;999.90;;;;;;;18.46;47.34;101469.91;680911;28;130842;-82
2022/07/11 01:16:58;;;;;;;1093.60;999.90;;;;;;;18.54;47.46;101486.97;691093;28;22489;-83
2022/07/11 01:17:19;;;;;;;1078.32;999.90;;;;;;;18.56;47.43;101489.47;689843;28;86540;-83
2022/07/11 01:17:40;;;;;;;1051.03;982.80;;;;;;;18.57;47.57;101490.31;691020;28;23804;-83
2022/07/11 01:18:02;;;;;;;1048.43;980.22;;;;;;;18.55;47.66;101494.09;689979;28;46342;-82
2022/07/11 01:18:27;;;;;;;1048.78;980.47;;;;;;;18.54;47.46;101489.69;686094;28;7646;-82
2022/07/11 01:18:52;;;;;;;1043.32;975.38;;;;;;;18.54;47.39;101488.81;682182;28;109615;-82
2022/07/11 01:19:13;;;;;;;1040.13;972.33;;;;;;;18.53;47.54;101485.25;685577;28;98444;-82
2022/07/11 01:19:34;;;;;;;1039.75;971.75;;;;;;;18.50;47.63;101488.41;693601;28;17906;-81
2022/07/11 01:19:56;;;;;;;1047.45;979.10;;;;;;;18.49;47.66;101485.91;687998;28;21409;-81
2022/07/11 01:20:18;;;;;;;1054.10;985.60;;;;;;;18.49;47.51;101494.09;690583;28;15918;-81
2022/07/11 01:20:40;;;;;;;1048.57;980.33;;;;;;;18.51;47.58;101492.84;690303;28;62386;-82
2022/07/11 01:21:02;;;;;;;1046.15;978.15;;;;;;;18.49;47.52;101491.38;684895;28;45229;-82
2022/07/11 01:21:25;;;;;;;1048.57;980.38;;;;;;;18.47;47.70;101493.47;689464;28;44823;-82
2022/07/11 01:21:50;;;;;;;1052.47;983.90;;;;;;;18.48;47.70;101490.53;690098;28;67362;-82
2022/07/11 01:22:14;;;;;;;1051.30;982.90;;;;;;;18.49;47.74;101494.09;694205;28;117201;-81
2022/07/11 01:22:37;;;;;;;1053.63;985.00;;;;;;;18.48;47.53;101493.28;693720;28;18943;-80
2022/07/11 01:23:02;;;;;;;1069.93;999.67;;;;;;;18.48;47.64;101500.63;687078;28;57696;-82
2022/07/11 01:23:24;;;;;;;1089.57;999.90;;;;;;;18.50;47.65;101493.06;687721;28;127228;-83
2022/07/11 01:23:48;;;;;;;1084.95;999.90;;;;;;;18.47;47.69;101496.22;689433;28;22474;-82
2022/07/11 01:24:09;;;;;;;1085.05;999.90;;;;;;;18.49;47.75;101497.66;688974;28;94248;-81
2022/07/11 01:24:31;;;;;;;1093.07;999.90;;;;;;;18.49;47.63;101500.41;688852;28;22772;-81
2022/07/11 01:24:55;;;;;;;1095.18;999.90;;;;;;;18.50;47.79;101499.38;690371;28;47544;-82
2022/07/11 01:25:29;;;;;;;1091.47;999.90;;;;;;;18.51;47.56;101502.94;685610;28;62171;-82
2022/07/11 01:25:51;;;;;;;1088.00;999.90;;;;;;;18.51;47.59;101498.31;686692;28;139936;-81
2022/07/11 01:26:13;;;;;;;1093.78;999.90;;;;;;;18.49;47.57;101491.38;691079;28;22171;-81
2022/07/11 01:26:36;;;;;;;1088.43;999.90;;;;;;;18.51;47.53;101501.06;684906;28;24540;-83
2022/07/11 01:26:57;;;;;;;1086.43;999.90;;;;;;;18.48;47.55;101500.63;690585;28;44750;-80
2022/07/11 01:27:19;;;;;;;1088.47;999.90;;;;;;;18.50;47.45;101499.38;689613;28;45326;-82
2022/07/11 01:27:40;;;;;;;1086.63;999.90;;;;;;;18.50;47.79;101493.88;686291;28;37309;-82
2022/07/11 01:28:04;;;;;;;1083.85;999.90;;;;;;;18.46;47.58;101483.59;689477;28;17099;-82
2022/07/11 01:28:27;;;;;;;1079.85;999.90;;;;;;;18.47;47.58;101493.47;687092;28;87315;-81
2022/07/11 01:28:55;;;;;;;1085.20;999.90;;;;;;;18.51;47.42;101494.72;682857;28;62829;-82
2022/07/11 01:29:17;;;;;;;1091.03;999.90;;;;;;;18.49;47.47;101502.31;687483;28;68389;-81
2022/07/11 01:29:39;;;;;;;1088.63;999.90;;;;;;;18.49;47.65;101497.66;693670;28;48734;-83
2022/07/11 01:30:00;;;;;;;1084.72;999.90;;;;;;;18.49;47.76;101494.94;692979;28;51744;-83
2022/07/11 01:30:22;;;;;;;1086.35;999.90;;;;;;;18.46;47.63;101491.78;692272;28;2496;-82
2022/07/11 01:30:43;;;;;;;1082.32;999.90;;;;;;;18.50;47.59;101495.78;682147;29;4106;-82
2022/07/11 01:31:05;;;;;;;1085.72;999.90;;;;;;;18.51;47.56;101501.06;689635;28;27073;-82
2022/07/11 01:31:27;;;;;;;1079.97;999.90;;;;;;;18.45;47.79;101493.69;691524;28;4160;-82
2022/07/11 01:31:49;;;;;;;1081.50;999.90;;;;;;;18.31;47.50;101467.41;690140;28;65443;-81
2022/07/11 01:32:10;;;;;;;1085.65;999.90;;;;;;;18.46;47.60;101497.25;687724;28;17042;-82
2022/07/11 01:32:31;;;;;;;1080.43;999.90;;;;;;;18.48;47.61;101500.63;694868;28;24370;-82
2022/07/11 01:32:53;;;;;;;1083.80;999.90;;;;;;;18.48;47.48;101495.16;688960;28;42321;-80
2022/07/11 01:33:15;;;;;;;1087.75;999.90;;;;;;;18.48;47.76;101497.88;689192;28;24401;-81
2022/07/11 01:33:37;;;;;;;1078.07;999.90;;;;;;;18.47;47.52;101493.47;683189;28;61241;-82
2022/07/11 01:33:58;;;;;;;1081.13;999.90;;;;;;;18.45;47.51;101495.56;689717;28;13825;-81
2022/07/11 01:34:21;;;;;;;1081.50;999.90;;;;;;;18.36;47.56;101490.31;689870;28;12234;-81
2022/07/11 01:34:42;;;;;;;1082.32;999.90;;;;;;;18.45;47.88;101496.44;693009;28;68434;-82
2022/07/11 01:35:04;;;;;;;1082.30;999.90;;;;;;;18.45;47.77;101504.63;695054;28;1744;-81
2022/07/11 01:35:27;;;;;;;1084.00;999.90;;;;;;;18.44;47.49;101502.94;687498;28;7401;-82
2022/07/11 01:35:48;;;;;;;1083.78;999.90;;;;;;;18.40;48.00;101501.69;683299;28;70550;-82
2022/07/11 01:36:12;;;;;;;1083.78;999.90;;;;;;;18.42;47.76;101501.47;689406;28;22522;-81
2022/07/11 01:36:33;;;;;;;1084.70;999.90;;;;;;;18.43;47.69;101495.81;691241;28;94337;-81
2022/07/11 01:36:54;;;;;;;1083.70;999.90;;;;;;;18.43;47.70;101497.69;691209;28;10972;-81
2022/07/11 01:37:16;;;;;;;1083.05;999.90;;;;;;;18.11;48.07;101449.09;690840;28;13431;-80
2022/07/11 01:37:37;;;;;;;1081.03;999.90;;;;;;;18.42;47.90;101496.84;685242;28;25586;-81
2022/07/11 01:37:59;;;;;;;1086.10;999.90;;;;;;;18.40;47.93;101498.09;680692;28;22379;-80
2022/07/11 01:38:22;;;;;;;1088.10;999.90;;;;;;;18.39;48.00;101496.44;690600;28;30888;-81
2022/07/11 01:38:44;;;;;;;1078.20;999.90;;;;;;;18.40;47.98;101498.97;690558;28;64668;-82